Time;durP1;ratioP1;P1;durP2;ratioP2;P2;SDS_P1;SDS_P2;PMS_P1;PMS_P2;Temp;Humidity;BMP_temperature;BMP_pressure;BME280_temperature;BME280_humidity;BME280_pressure;Samples;Min_cycle;Max_cycle;Signal;HPM_P1;HPM_P2
2023/08/17 00:01:13;;;;;;;5.25;2.50;;;;;;;20.71;71.91;101855.31;5054654;28;20029;-60
2023/08/17 00:03:39;;;;;;;4.53;2.60;;;;;;;20.71;72.06;101854.44;5054629;28;20040;-59
2023/08/17 00:06:04;;;;;;;6.40;2.60;;;;;;;20.66;72.40;101859.88;5054587;28;20057;-60
2023/08/17 00:08:30;;;;;;;7.13;2.70;;;;;;;20.68;71.93;101859.84;5054813;28;20029;-60
2023/08/17 00:10:55;;;;;;;8.43;2.63;;;;;;;20.63;72.21;101850.97;5036564;28;20467;-60
2023/08/17 00:13:20;;;;;;;5.68;2.60;;;;;;;20.59;72.09;101849.25;5054479;28;20029;-60
2023/08/17 00:15:46;;;;;;;7.80;2.65;;;;;;;20.49;72.17;101851.19;5054133;28;20073;-60
2023/08/17 00:18:12;;;;;;;6.43;2.53;;;;;;;20.39;71.91;101852.19;5054308;28;20502;-59
2023/08/17 00:20:37;;;;;;;5.32;2.50;;;;;;;20.36;72.55;101850.44;5054378;28;20029;-59
2023/08/17 00:23:03;;;;;;;5.18;2.55;;;;;;;20.32;72.70;101842.44;5054214;28;20029;-60
2023/08/17 00:25:29;;;;;;;8.50;2.60;;;;;;;20.34;72.18;101856.72;5054184;28;20470;-60
2023/08/17 00:27:54;;;;;;;5.32;2.70;;;;;;;20.33;72.26;101847.78;5054147;28;20029;-59
2023/08/17 00:30:20;;;;;;;6.00;2.50;;;;;;;20.27;72.18;101845.19;5054157;28;20068;-60
2023/08/17 00:32:45;;;;;;;5.80;2.40;;;;;;;20.23;72.58;101841.66;5053555;28;20467;-60
2023/08/17 00:35:10;;;;;;;7.13;2.70;;;;;;;20.10;72.45;101839.16;5054032;28;20128;-60
2023/08/17 00:37:36;;;;;;;5.07;2.35;;;;;;;20.06;72.50;101840.97;5054221;28;20025;-61
2023/08/17 00:40:01;;;;;;;7.45;2.65;;;;;;;20.02;73.46;101844.59;5053947;28;20518;-59
2023/08/17 00:42:27;;;;;;;10.20;2.47;;;;;;;19.92;72.78;101840.28;5054077;28;20033;-58
2023/08/17 00:44:52;;;;;;;6.53;2.47;;;;;;;19.89;73.14;101837.63;5053818;28;20060;-61
2023/08/17 00:47:18;;;;;;;5.05;2.53;;;;;;;19.88;73.26;101836.75;5053698;28;20116;-60
2023/08/17 00:49:43;;;;;;;5.90;2.95;;;;;;;19.90;73.13;101840.28;5053989;28;20029;-60
2023/08/17 00:52:10;;;;;;;8.18;2.90;;;;;;;19.86;73.68;101840.34;5053581;28;20096;-59
2023/08/17 00:54:35;;;;;;;6.05;2.60;;;;;;;19.83;73.59;101837.69;5035748;28;20032;-59
2023/08/17 00:57:01;;;;;;;6.07;2.50;;;;;;;19.83;73.78;101843.03;5053634;28;20526;-60
2023/08/17 00:59:26;;;;;;;6.85;2.72;;;;;;;19.78;73.82;101848.47;5053714;28;20025;-58
2023/08/17 01:01:52;;;;;;;6.97;2.50;;;;;;;19.85;73.66;101844.81;5053315;28;20048;-60
2023/08/17 01:04:17;;;;;;;4.63;2.47;;;;;;;19.86;74.18;101854.63;5053536;28;20032;-58
2023/08/17 01:06:43;;;;;;;4.65;2.50;;;;;;;19.86;74.21;101849.25;5053695;28;20033;-59
2023/08/17 01:09:09;;;;;;;8.70;2.70;;;;;;;19.84;74.44;101851.09;5035875;28;20355;-60
2023/08/17 01:12:05;;;;;;;4.25;2.50;;;;;;;19.87;74.31;101848.38;5053279;28;20083;-59
2023/08/17 01:14:37;;;;;;;7.70;2.60;;;;;;;19.71;75.06;101855.72;5053421;28;20040;-60
2023/08/17 01:17:22;;;;;;;5.63;2.60;;;;;;;19.70;75.23;101853.94;5053098;28;20487;-60
2023/08/17 01:19:49;;;;;;;8.57;2.63;;;;;;;19.68;75.67;101861.09;5053556;28;20036;-60
2023/08/17 01:22:20;;;;;;;6.90;2.78;;;;;;;19.65;75.88;101844.13;5053194;28;20111;-60
2023/08/17 01:24:46;;;;;;;6.70;2.80;;;;;;;19.65;75.85;101852.19;5053227;28;20029;-60
2023/08/17 01:27:11;;;;;;;6.75;2.70;;;;;;;19.66;75.76;101845.94;5053144;28;20037;-60
2023/08/17 01:29:37;;;;;;;4.72;2.63;;;;;;;19.65;76.43;101845.03;5035179;28;20036;-60
2023/08/17 01:32:44;;;;;;;7.85;2.83;;;;;;;19.74;75.70;101844.94;5052719;28;20387;-59
2023/08/17 01:35:29;;;;;;;6.38;2.63;;;;;;;19.66;76.29;101840.56;5052116;28;20482;-60
2023/08/17 01:37:59;;;;;;;6.68;2.97;;;;;;;19.62;76.67;101841.53;5053303;28;20035;-59
2023/08/17 01:40:28;;;;;;;5.70;2.60;;;;;;;19.59;76.65;101831.66;5053026;28;20103;-60
2023/08/17 01:42:55;;;;;;;4.75;2.72;;;;;;;19.61;76.47;101840.59;5052778;28;20021;-60
2023/08/17 01:45:21;;;;;;;4.57;2.60;;;;;;;19.57;77.10;101833.50;5052130;28;20106;-60
2023/08/17 01:47:46;;;;;;;7.32;2.90;;;;;;;19.58;77.54;101832.56;5051603;28;20037;-60
2023/08/17 01:50:12;;;;;;;5.65;2.90;;;;;;;19.50;77.17;101834.44;5053081;28;20031;-60
2023/08/17 01:52:37;;;;;;;6.25;2.55;;;;;;;19.49;77.68;101835.34;5052828;28;20033;-60
2023/08/17 01:55:03;;;;;;;7.15;2.85;;;;;;;19.50;77.19;101837.13;5052921;28;20029;-60
2023/08/17 01:57:28;;;;;;;7.78;3.05;;;;;;;19.51;77.04;101846.94;5053003;28;20021;-59
2023/08/17 01:59:54;;;;;;;6.50;2.70;;;;;;;19.50;77.18;101843.38;5053033;28;20444;-60
2023/08/17 02:02:21;;;;;;;13.13;3.17;;;;;;;19.52;77.23;101844.22;5052607;28;20040;-60
2023/08/17 02:04:47;;;;;;;6.90;2.80;;;;;;;19.46;77.63;101841.63;5052761;28;20035;-60
2023/08/17 02:07:12;;;;;;;6.35;2.92;;;;;;;19.41;77.29;101838.13;5052692;28;20112;-60
2023/08/17 02:09:37;;;;;;;6.82;2.97;;;;;;;19.41;77.64;101839.91;5052668;28;20494;-60
2023/08/17 02:12:03;;;;;;;6.97;2.90;;;;;;;19.38;77.53;101831.88;5052573;28;20087;-60
2023/08/17 02:14:29;;;;;;;7.25;2.85;;;;;;;19.35;77.82;101840.84;5052958;28;20095;-59
2023/08/17 02:16:54;;;;;;;6.22;2.70;;;;;;;19.26;77.64;101835.56;5052356;28;20527;-60
2023/08/17 02:19:19;;;;;;;9.73;3.13;;;;;;;19.25;77.93;101839.16;5052685;28;20021;-60
2023/08/17 02:21:45;;;;;;;7.78;2.70;;;;;;;19.23;77.55;101846.34;5052619;28;20029;-60
2023/08/17 02:24:10;;;;;;;5.65;2.85;;;;;;;19.08;77.88;101836.63;5052674;28;20116;-59
2023/08/17 02:26:38;;;;;;;8.48;3.10;;;;;;;19.11;77.44;101841.09;5052522;28;20128;-60
2023/08/17 02:29:04;;;;;;;4.97;2.63;;;;;;;19.03;77.30;101841.13;5052587;28;20028;-59
2023/08/17 02:31:29;;;;;;;8.07;2.78;;;;;;;19.01;77.90;101842.94;5034436;28;20387;-60
2023/08/17 02:33:58;;;;;;;6.20;2.72;;;;;;;18.98;77.51;101840.28;5051282;28;20021;-60
2023/08/17 02:36:23;;;;;;;7.30;2.70;;;;;;;19.01;77.57;101846.53;5052362;28;20024;-60
2023/08/17 02:38:49;;;;;;;6.07;2.78;;;;;;;19.01;77.46;101851.88;5052422;28;20173;-59
2023/08/17 02:41:14;;;;;;;5.75;2.67;;;;;;;19.02;77.36;101834.91;5052381;28;20112;-60
2023/08/17 02:43:39;;;;;;;8.18;2.83;;;;;;;19.03;76.86;101841.13;5052521;28;20025;-59
2023/08/17 02:46:07;;;;;;;5.32;2.80;;;;;;;19.06;76.87;101835.75;5052455;28;20068;-59
2023/08/17 02:48:33;;;;;;;6.47;2.53;;;;;;;19.08;76.68;101836.63;5052559;28;20108;-60
2023/08/17 02:50:58;;;;;;;6.05;2.63;;;;;;;19.04;76.47;101832.19;5052229;28;20021;-60
2023/08/17 02:53:23;;;;;;;6.30;2.65;;;;;;;19.06;76.27;101832.16;5052250;28;20029;-60
2023/08/17 02:55:49;;;;;;;7.28;2.70;;;;;;;19.06;76.82;101832.16;5053997;28;20112;-59
2023/08/17 02:58:14;;;;;;;5.32;2.70;;;;;;;19.07;76.12;101826.81;5038196;28;20429;-59
2023/08/17 03:00:40;;;;;;;6.53;2.63;;;;;;;19.02;76.25;101829.53;5055525;28;20040;-59
2023/08/17 03:03:05;;;;;;;8.25;3.10;;;;;;;19.06;76.27;101824.13;5055775;28;20037;-60
2023/08/17 03:05:31;;;;;;;6.82;2.50;;;;;;;19.03;76.22;101819.72;5055846;28;20064;-59
2023/08/17 03:07:56;;;;;;;5.05;2.60;;;;;;;19.02;76.11;101818.81;5055767;28;20051;-59
2023/08/17 03:10:22;;;;;;;7.53;2.65;;;;;;;18.97;76.29;101830.47;5055667;28;20025;-59
2023/08/17 03:12:47;;;;;;;5.18;2.70;;;;;;;18.96;76.05;101818.84;5055635;28;20481;-60
2023/08/17 03:15:12;;;;;;;5.93;2.60;;;;;;;19.02;76.10;101821.50;5055294;28;20053;-59
2023/08/17 03:17:38;;;;;;;6.03;2.50;;;;;;;18.98;75.78;101825.09;5054422;28;20082;-60
2023/08/17 03:20:06;;;;;;;6.40;2.72;;;;;;;18.90;75.95;101823.41;5055564;28;20479;-60
2023/08/17 03:22:32;;;;;;;5.88;2.60;;;;;;;18.84;76.22;101816.28;5054216;28;20025;-60
2023/08/17 03:24:57;;;;;;;6.43;2.60;;;;;;;18.86;76.30;101817.16;5037683;28;20021;-60
2023/08/17 03:27:24;;;;;;;5.85;2.47;;;;;;;18.87;76.05;101820.72;5055425;28;20474;-60
2023/08/17 03:29:49;;;;;;;5.90;2.33;;;;;;;18.90;76.02;101815.34;5055303;28;20040;-59
2023/08/17 03:32:15;;;;;;;6.40;2.53;;;;;;;18.88;75.86;101809.09;5055017;28;20029;-60
2023/08/17 03:34:40;;;;;;;7.05;2.50;;;;;;;18.90;75.37;101810.00;5055281;28;20056;-61
2023/08/17 03:37:06;;;;;;;7.60;2.50;;;;;;;18.88;76.12;101819.81;5055020;28;20047;-60
2023/08/17 03:39:31;;;;;;;6.10;2.78;;;;;;;18.81;75.41;101812.75;5055440;28;20423;-60
2023/08/17 03:41:56;;;;;;;8.35;2.40;;;;;;;18.77;75.32;101817.25;5055026;28;20029;-60
2023/08/17 03:44:22;;;;;;;5.75;2.40;;;;;;;18.79;76.12;101819.91;5055010;28;20501;-59
2023/08/17 03:46:47;;;;;;;7.25;2.50;;;;;;;18.81;76.01;101808.28;5055129;28;20060;-59
2023/08/17 03:49:14;;;;;;;6.85;2.60;;;;;;;18.82;75.15;101812.72;5037196;28;20028;-60
2023/08/17 03:51:39;;;;;;;6.40;2.80;;;;;;;18.82;75.82;101818.09;5055052;28;20087;-60
2023/08/17 03:54:05;;;;;;;8.43;2.50;;;;;;;18.85;76.03;101814.50;5054864;28;20029;-61
2023/08/17 03:56:30;;;;;;;5.43;2.33;;;;;;;18.85;76.16;101815.41;5036875;28;20094;-60
2023/08/17 03:58:56;;;;;;;6.05;2.60;;;;;;;18.83;76.32;101814.50;5054802;28;20383;-61
2023/08/17 04:01:21;;;;;;;7.05;2.70;;;;;;;18.85;76.16;101818.06;5054663;28;20033;-61
2023/08/17 04:03:47;;;;;;;8.00;2.72;;;;;;;18.88;76.18;101818.03;5054954;28;20083;-60
2023/08/17 04:06:12;;;;;;;5.07;2.33;;;;;;;18.89;76.76;101818.94;5053121;28;20536;-60
2023/08/17 04:08:38;;;;;;;7.57;2.80;;;;;;;18.90;76.94;101820.72;5054004;28;20032;-60
2023/08/17 04:11:04;;;;;;;7.57;2.78;;;;;;;18.89;77.19;101827.88;5054509;28;20031;-60
2023/08/17 04:13:30;;;;;;;5.65;2.85;;;;;;;18.91;77.17;101835.88;5054756;28;20033;-60
2023/08/17 04:15:56;;;;;;;5.85;2.80;;;;;;;18.90;77.55;101835.00;5054167;28;20052;-60
2023/08/17 04:18:21;;;;;;;8.40;3.05;;;;;;;18.92;78.18;101841.22;5036558;28;20033;-59
2023/08/17 04:20:46;;;;;;;8.00;3.00;;;;;;;18.89;78.24;101851.09;5054456;28;20029;-60
2023/08/17 04:23:12;;;;;;;6.82;3.00;;;;;;;18.89;78.39;101838.56;5054282;28;20459;-60
2023/08/17 04:25:37;;;;;;;6.10;2.92;;;;;;;18.86;79.08;101851.09;5036361;28;20024;-59
2023/08/17 04:28:03;;;;;;;7.60;3.30;;;;;;;18.85;78.99;101842.19;5052970;28;20079;-60
2023/08/17 04:30:28;;;;;;;7.47;2.92;;;;;;;18.88;78.56;101846.59;5054185;28;20107;-61
2023/08/17 04:32:54;;;;;;;6.75;3.05;;;;;;;18.89;78.65;101845.72;5053761;28;20382;-60
2023/08/17 04:35:20;;;;;;;9.90;3.00;;;;;;;19.01;78.36;101856.31;5036424;28;20074;-60
2023/08/17 04:37:46;;;;;;;9.50;3.30;;;;;;;18.95;78.69;101851.03;5053916;28;20025;-61
2023/08/17 04:40:12;;;;;;;7.10;3.10;;;;;;;18.89;78.75;101853.75;5035976;28;20033;-60
2023/08/17 04:42:38;;;;;;;5.38;3.10;;;;;;;18.84;78.81;101856.44;5035816;28;20098;-59
2023/08/17 04:45:03;;;;;;;5.10;2.95;;;;;;;18.85;79.41;101855.56;5052271;28;20588;-60
2023/08/17 04:47:29;;;;;;;7.63;3.10;;;;;;;18.85;78.74;101852.88;5053573;28;20509;-60
2023/08/17 04:49:54;;;;;;;8.80;3.10;;;;;;;18.83;79.75;101846.63;5053155;28;20105;-60
2023/08/17 04:52:19;;;;;;;6.75;2.95;;;;;;;18.86;79.20;101851.09;5053257;28;20151;-59
2023/08/17 04:54:45;;;;;;;9.82;3.10;;;;;;;18.85;79.05;101858.25;5053097;28;20395;-60
2023/08/17 04:57:10;;;;;;;7.00;3.22;;;;;;;18.83;79.16;101846.63;5053205;28;20056;-61
2023/08/17 04:59:36;;;;;;;8.52;2.95;;;;;;;18.80;79.22;101852.03;5052152;28;20086;-61
2023/08/17 05:02:01;;;;;;;8.40;3.00;;;;;;;18.91;78.56;101854.63;5052777;28;20479;-60
2023/08/17 05:04:30;;;;;;;6.53;3.10;;;;;;;18.80;78.79;101845.78;5053198;28;20098;-60
2023/08/17 05:06:56;;;;;;;7.03;2.80;;;;;;;18.83;79.27;101860.03;5053210;28;20096;-60
2023/08/17 05:09:22;;;;;;;6.65;3.30;;;;;;;18.86;79.12;101854.66;5053147;28;20124;-60
2023/08/17 05:11:47;;;;;;;7.25;2.97;;;;;;;18.90;78.65;101837.66;5052888;28;20075;-60
2023/08/17 05:14:13;;;;;;;7.30;3.30;;;;;;;18.87;78.48;101836.78;5053219;28;20033;-60
2023/08/17 05:16:38;;;;;;;5.53;2.88;;;;;;;18.90;78.58;101843.03;5052329;28;20157;-60
2023/08/17 05:19:04;;;;;;;8.15;3.00;;;;;;;18.90;78.46;101848.38;5051625;28;20052;-59
2023/08/17 05:21:29;;;;;;;8.27;3.08;;;;;;;18.90;77.95;101842.13;5052648;28;20064;-60
2023/08/17 05:23:55;;;;;;;7.00;2.90;;;;;;;18.85;78.13;101847.53;5052680;28;20025;-59
2023/08/17 05:26:20;;;;;;;6.10;3.17;;;;;;;18.80;78.24;101852.03;5052842;28;20112;-60
2023/08/17 05:28:46;;;;;;;9.25;3.13;;;;;;;18.73;78.50;101847.63;5052666;28;20056;-59
2023/08/17 05:31:11;;;;;;;6.75;3.00;;;;;;;18.73;78.28;101850.28;5052376;28;20078;-60
2023/08/17 05:33:37;;;;;;;9.48;3.10;;;;;;;18.76;78.50;101845.81;5052593;28;20062;-60
2023/08/17 05:36:02;;;;;;;7.85;3.33;;;;;;;18.72;78.46;101840.50;5052599;28;20132;-59
2023/08/17 05:38:28;;;;;;;5.53;2.92;;;;;;;18.76;78.61;101844.94;5052627;28;20057;-59
2023/08/17 05:40:57;;;;;;;8.15;3.30;;;;;;;18.80;78.29;101844.00;5052690;28;20100;-59
2023/08/17 05:43:23;;;;;;;8.40;3.10;;;;;;;18.75;78.69;101846.69;5034501;28;20029;-59
2023/08/17 05:45:48;;;;;;;10.95;3.00;;;;;;;18.81;78.10;101842.22;5052297;28;20119;-59
2023/08/17 05:48:14;;;;;;;7.05;3.08;;;;;;;18.80;78.68;101853.81;5052633;28;20040;-59
2023/08/17 05:50:42;;;;;;;7.40;3.00;;;;;;;18.75;78.95;101854.72;5052670;28;20025;-60
2023/08/17 05:53:08;;;;;;;7.57;3.00;;;;;;;18.79;78.42;101852.91;5052406;28;20017;-61
2023/08/17 05:55:33;;;;;;;7.63;3.10;;;;;;;18.87;78.35;101859.09;5052370;28;20033;-59
2023/08/17 05:57:59;;;;;;;8.45;2.97;;;;;;;18.96;78.71;101845.66;5052288;28;20028;-59
2023/08/17 06:00:24;;;;;;;7.20;3.15;;;;;;;19.05;77.90;101851.84;5052398;28;20051;-60
2023/08/17 06:02:51;;;;;;;6.70;2.97;;;;;;;19.00;77.79;101858.13;5052028;28;20060;-59
2023/08/17 06:05:17;;;;;;;7.53;3.00;;;;;;;19.01;78.14;101859.91;5052403;28;20103;-60
2023/08/17 06:07:42;;;;;;;7.65;3.00;;;;;;;19.06;78.36;101859.88;5052288;28;20018;-60
2023/08/17 06:10:09;;;;;;;7.88;3.33;;;;;;;19.13;77.89;101864.25;5052199;28;20031;-59
2023/08/17 06:12:35;;;;;;;6.38;3.15;;;;;;;19.10;77.86;101871.44;5052216;28;20025;-60
2023/08/17 06:15:02;;;;;;;8.75;3.00;;;;;;;19.13;77.67;101869.63;5052102;28;20067;-60
2023/08/17 06:17:28;;;;;;;6.72;3.03;;;;;;;19.11;77.59;101865.19;5052308;28;20021;-60
2023/08/17 06:19:54;;;;;;;7.10;3.08;;;;;;;19.14;77.99;101870.50;5052093;28;20025;-60
2023/08/17 06:22:19;;;;;;;5.95;3.00;;;;;;;19.18;77.16;101869.56;5051960;28;20056;-59
2023/08/17 06:24:44;;;;;;;9.18;3.28;;;;;;;19.23;77.66;101865.97;5052007;28;20025;-59
2023/08/17 06:27:14;;;;;;;10.82;3.03;;;;;;;19.32;78.02;101856.97;5052229;28;20531;-59
2023/08/17 06:29:39;;;;;;;7.40;3.20;;;;;;;19.32;78.09;101862.31;5051844;28;20028;-59
2023/08/17 06:32:05;;;;;;;12.13;3.40;;;;;;;19.36;77.92;101865.88;5055913;28;20100;-59
2023/08/17 06:34:31;;;;;;;9.35;3.33;;;;;;;19.54;77.24;101867.47;5056242;28;20036;-59
2023/08/17 06:36:58;;;;;;;5.45;2.85;;;;;;;19.70;76.69;101871.81;5056105;28;20108;-60
2023/08/17 06:39:23;;;;;;;6.13;3.15;;;;;;;19.76;76.54;101861.91;5056096;28;20052;-60
2023/08/17 06:41:49;;;;;;;7.70;3.15;;;;;;;19.95;75.99;101867.03;5055923;28;20490;-60
2023/08/17 06:44:14;;;;;;;7.38;3.30;;;;;;;19.94;75.76;101863.47;5055796;28;20033;-60
2023/08/17 06:46:40;;;;;;;8.15;3.15;;;;;;;19.92;75.74;101869.78;5054393;28;20029;-59
2023/08/17 06:49:05;;;;;;;10.10;3.25;;;;;;;19.99;75.62;101864.31;5055586;28;20359;-59
2023/08/17 06:51:30;;;;;;;7.15;3.13;;;;;;;20.04;76.06;101866.03;5055580;28;20053;-59
2023/08/17 06:53:56;;;;;;;6.35;3.10;;;;;;;20.05;75.57;101860.69;5055602;28;20482;-59
2023/08/17 06:56:22;;;;;;;9.05;3.40;;;;;;;20.09;74.93;101862.41;5055295;28;20025;-60
2023/08/17 06:58:48;;;;;;;8.00;3.30;;;;;;;20.07;75.10;101858.84;5055417;28;20423;-59
2023/08/17 07:01:14;;;;;;;9.15;3.60;;;;;;;20.02;74.46;101871.44;5037120;28;20032;-59
2023/08/17 07:03:40;;;;;;;7.80;3.30;;;;;;;20.02;75.20;101861.59;5055613;28;20064;-59
2023/08/17 07:06:05;;;;;;;9.88;3.22;;;;;;;20.06;74.79;101869.63;5055537;28;20109;-60
2023/08/17 07:08:32;;;;;;;9.15;3.47;;;;;;;20.15;75.42;101877.53;5055563;28;20021;-59
2023/08/17 07:10:58;;;;;;;7.28;3.38;;;;;;;20.15;75.38;101878.44;5055210;28;20477;-59
2023/08/17 07:13:23;;;;;;;7.72;3.03;;;;;;;20.16;75.24;101874.84;5037273;28;20107;-60
2023/08/17 07:15:49;;;;;;;11.63;3.40;;;;;;;20.13;75.05;101869.53;5036990;28;20056;-59
2023/08/17 07:18:14;;;;;;;7.97;3.50;;;;;;;20.19;74.21;101869.44;5055077;28;20135;-60
2023/08/17 07:20:40;;;;;;;7.57;3.15;;;;;;;20.17;74.20;101870.34;5055072;28;20108;-59
2023/08/17 07:23:05;;;;;;;10.25;3.33;;;;;;;20.15;74.89;101874.88;5054054;28;20040;-60
2023/08/17 07:25:31;;;;;;;7.75;3.20;;;;;;;20.19;75.11;101865.88;5054902;28;20068;-59
2023/08/17 07:27:56;;;;;;;10.80;3.30;;;;;;;20.19;73.64;101872.13;5055194;28;20087;-60
2023/08/17 07:30:21;;;;;;;6.78;3.38;;;;;;;20.26;74.08;101873.84;5053503;28;20522;-59
2023/08/17 07:32:47;;;;;;;7.55;3.42;;;;;;;20.35;73.88;101877.31;5054559;28;20029;-59
2023/08/17 07:35:12;;;;;;;6.88;3.42;;;;;;;20.39;72.78;101873.69;5054737;28;20474;-60
2023/08/17 07:37:38;;;;;;;7.38;3.03;;;;;;;20.51;72.72;101876.19;5020401;28;20033;-60
2023/08/17 07:40:03;;;;;;;7.32;3.30;;;;;;;20.46;72.30;101875.34;5054833;28;20033;-59
2023/08/17 07:42:29;;;;;;;8.73;3.40;;;;;;;20.49;73.20;101872.66;5053596;28;20463;-59
2023/08/17 07:44:54;;;;;;;7.57;3.25;;;;;;;20.56;72.06;101873.47;5054636;28;20445;-59
2023/08/17 07:47:20;;;;;;;8.38;3.22;;;;;;;20.62;71.96;101870.69;5054493;28;20029;-60
2023/08/17 07:49:45;;;;;;;6.20;3.30;;;;;;;20.71;71.72;101871.44;5036579;28;20033;-59
2023/08/17 07:52:10;;;;;;;9.15;3.10;;;;;;;20.72;71.72;101880.38;5054540;28;20025;-60
2023/08/17 07:54:36;;;;;;;7.38;3.35;;;;;;;20.62;71.10;101881.44;5054622;28;20108;-59
2023/08/17 07:57:03;;;;;;;9.60;3.30;;;;;;;20.57;71.62;101878.81;5054243;28;20041;-60
2023/08/17 07:59:28;;;;;;;8.18;3.60;;;;;;;20.58;71.61;101887.75;5054279;28;20071;-59
2023/08/17 08:01:54;;;;;;;6.97;3.80;;;;;;;20.45;72.20;101887.00;5036025;28;20052;-60
2023/08/17 08:04:19;;;;;;;9.27;3.35;;;;;;;20.52;72.22;101883.38;5054288;28;20108;-59
2023/08/17 08:06:46;;;;;;;6.65;3.20;;;;;;;20.59;72.28;101889.53;5054144;28;20032;-60
2023/08/17 08:09:11;;;;;;;7.88;3.35;;;;;;;20.67;72.31;101882.25;5054229;28;20032;-60
2023/08/17 08:11:36;;;;;;;7.90;3.47;;;;;;;20.68;72.86;101875.97;5054152;28;20429;-60
2023/08/17 08:14:02;;;;;;;9.73;3.60;;;;;;;20.73;71.46;101884.88;5054288;28;20067;-58
2023/08/17 08:16:30;;;;;;;9.60;3.63;;;;;;;20.83;71.77;101881.13;5053755;28;20053;-59
2023/08/17 08:18:55;;;;;;;7.95;3.60;;;;;;;20.87;71.06;101882.84;5054241;28;20040;-59
2023/08/17 08:21:21;;;;;;;8.80;3.40;;;;;;;20.82;71.72;101881.16;5053786;28;20025;-60
2023/08/17 08:23:46;;;;;;;9.25;3.45;;;;;;;20.78;71.85;101879.41;5053925;28;20103;-60
2023/08/17 08:26:12;;;;;;;7.55;3.30;;;;;;;20.75;71.45;101878.53;5053857;28;20055;-60
2023/08/17 08:28:37;;;;;;;10.95;3.55;;;;;;;20.65;71.08;101867.97;5053922;28;20573;-59
2023/08/17 08:31:03;;;;;;;7.68;3.70;;;;;;;20.68;71.56;101876.84;5053628;28;20029;-59
2023/08/17 08:33:29;;;;;;;9.88;3.53;;;;;;;20.66;71.86;101896.59;5053699;28;20033;-60
2023/08/17 08:35:54;;;;;;;5.72;3.50;;;;;;;20.63;72.27;101899.31;5053708;28;20021;-59
2023/08/17 08:38:20;;;;;;;7.60;3.50;;;;;;;20.54;72.18;101892.28;5053415;28;20502;-60
2023/08/17 08:40:47;;;;;;;11.20;3.70;;;;;;;20.50;72.73;101895.91;5053925;28;20031;-59
2023/08/17 08:43:13;;;;;;;11.82;3.80;;;;;;;20.48;72.39;101887.00;5053537;28;20108;-60
2023/08/17 08:45:41;;;;;;;10.07;3.90;;;;;;;20.54;72.67;101894.06;5053418;28;20111;-60
2023/08/17 08:48:08;;;;;;;6.50;3.70;;;;;;;20.45;72.27;101893.25;5053238;28;20029;-59
2023/08/17 08:50:35;;;;;;;8.60;4.10;;;;;;;20.31;73.41;101889.00;5035405;28;20082;-60
2023/08/17 08:53:04;;;;;;;6.78;3.53;;;;;;;20.31;73.62;101887.19;5052742;28;20029;-59
2023/08/17 08:55:35;;;;;;;8.75;3.67;;;;;;;20.28;74.16;101881.84;5053128;28;20036;-59
2023/08/17 08:58:04;;;;;;;8.23;3.90;;;;;;;20.32;73.83;101880.91;5018981;28;20028;-59
2023/08/17 09:00:34;;;;;;;14.43;4.00;;;;;;;20.41;74.09;101877.22;5053057;28;20041;-59
2023/08/17 09:03:03;;;;;;;8.15;3.80;;;;;;;20.41;73.78;101878.09;5052981;28;20534;-61
2023/08/17 09:05:31;;;;;;;10.27;4.25;;;;;;;20.42;73.96;101874.50;5053020;28;20025;-60
2023/08/17 09:07:58;;;;;;;12.50;4.30;;;;;;;20.40;73.79;101870.97;5053056;28;20016;-60
2023/08/17 09:10:23;;;;;;;12.77;4.28;;;;;;;20.49;74.62;101868.16;5053231;28;20025;-61
2023/08/17 09:12:49;;;;;;;8.75;3.85;;;;;;;20.55;73.85;101861.81;5052874;28;20055;-60
2023/08/17 09:15:15;;;;;;;8.27;3.90;;;;;;;20.50;74.34;101864.56;5052905;28;20053;-61
2023/08/17 09:17:40;;;;;;;9.73;4.22;;;;;;;20.49;73.48;101859.22;5052877;28;20039;-61
2023/08/17 09:20:08;;;;;;;17.65;4.63;;;;;;;20.44;73.41;101870.00;5052833;28;20025;-61
2023/08/17 09:22:43;;;;;;;11.45;4.35;;;;;;;20.38;73.57;101871.88;5053043;28;20033;-61
2023/08/17 09:25:10;;;;;;;11.80;4.70;;;;;;;20.29;73.39;101872.88;5053153;28;20324;-60
2023/08/17 09:27:37;;;;;;;12.95;4.80;;;;;;;20.21;74.28;101874.78;5052646;28;20025;-60
2023/08/17 09:30:05;;;;;;;13.95;4.90;;;;;;;20.15;74.68;101869.50;5052769;28;20118;-60
2023/08/17 09:32:31;;;;;;;13.25;5.10;;;;;;;20.16;75.03;101866.78;5034437;28;20032;-60
2023/08/17 09:34:56;;;;;;;11.10;5.00;;;;;;;20.23;74.57;101872.97;5052893;28;20113;-61
2023/08/17 09:37:22;;;;;;;18.20;5.00;;;;;;;20.30;74.49;101857.66;5052511;28;20031;-60
2023/08/17 09:39:48;;;;;;;12.38;5.10;;;;;;;20.36;74.84;101869.22;5052629;28;20032;-61
2023/08/17 09:42:15;;;;;;;12.68;5.00;;;;;;;20.41;73.93;101861.97;5052448;28;20120;-60
2023/08/17 09:44:42;;;;;;;13.02;4.85;;;;;;;20.42;74.71;101858.38;5052694;28;20033;-60
2023/08/17 09:47:07;;;;;;;13.02;5.15;;;;;;;20.54;74.07;101864.53;5052134;28;20036;-61
2023/08/17 09:49:33;;;;;;;16.45;5.57;;;;;;;20.56;73.98;101862.72;5052681;28;20033;-60
2023/08/17 09:52:02;;;;;;;12.93;5.78;;;;;;;20.60;74.01;101859.06;5052335;28;20075;-61
2023/08/17 09:54:30;;;;;;;12.50;6.15;;;;;;;20.54;74.16;101856.47;5052588;28;20082;-61
2023/08/17 09:56:57;;;;;;;12.60;5.50;;;;;;;20.63;74.56;101859.91;5052314;28;20090;-61
2023/08/17 09:59:23;;;;;;;15.50;5.82;;;;;;;20.66;73.79;101859.00;5052343;28;20037;-61
2023/08/17 10:01:50;;;;;;;17.00;6.53;;;;;;;20.58;74.06;101858.22;5034343;28;20033;-60
2023/08/17 10:04:20;;;;;;;14.40;6.20;;;;;;;20.66;74.01;101856.31;5052218;28;20029;-61
2023/08/17 10:07:07;;;;;;;13.60;6.35;;;;;;;20.60;74.01;101854.59;5055878;28;20029;-61
2023/08/17 10:09:39;;;;;;;11.90;5.88;;;;;;;20.60;74.51;101856.38;5056389;28;20434;-60
2023/08/17 10:12:11;;;;;;;16.38;6.68;;;;;;;20.58;74.94;101848.34;5038469;28;20044;-61
2023/08/17 10:14:46;;;;;;;15.13;6.35;;;;;;;20.59;74.70;101847.44;5056323;28;20029;-60
2023/08/17 10:17:15;;;;;;;13.80;6.00;;;;;;;20.61;74.45;101842.06;5056344;28;20124;-61
2023/08/17 10:19:51;;;;;;;12.93;6.00;;;;;;;20.51;74.79;101838.59;5056360;28;20035;-60
2023/08/17 10:22:29;;;;;;;12.60;6.35;;;;;;;20.46;75.22;101838.63;5056207;28;20410;-60
2023/08/17 10:24:57;;;;;;;12.48;6.00;;;;;;;20.45;75.51;101834.19;5055052;28;20029;-60
2023/08/17 10:27:22;;;;;;;11.68;6.07;;;;;;;20.54;75.88;101826.94;5054923;28;20490;-60
2023/08/17 10:29:50;;;;;;;14.02;6.30;;;;;;;20.66;75.58;101827.66;5055834;28;20063;-60
2023/08/17 10:32:16;;;;;;;14.35;6.35;;;;;;;20.74;74.75;101831.09;5037718;28;20044;-60
2023/08/17 10:34:42;;;;;;;12.35;6.40;;;;;;;20.88;74.82;101827.31;5055961;28;20025;-60
2023/08/17 10:37:09;;;;;;;14.93;6.20;;;;;;;20.99;75.07;101828.03;5055750;28;20053;-60
2023/08/17 10:39:37;;;;;;;14.20;7.20;;;;;;;21.07;74.13;101831.47;5055866;28;20371;-60
2023/08/17 10:42:02;;;;;;;14.02;7.25;;;;;;;21.11;73.74;101834.97;5055767;28;20067;-60
2023/08/17 10:44:46;;;;;;;13.93;6.78;;;;;;;21.15;73.78;101829.50;5055875;28;20033;-61
2023/08/17 10:47:26;;;;;;;10.73;5.97;;;;;;;21.17;74.43;101834.88;5055476;28;20021;-60
2023/08/17 10:49:55;;;;;;;18.75;6.82;;;;;;;21.14;74.31;101834.94;5055855;28;20055;-60
2023/08/17 10:52:39;;;;;;;11.88;6.80;;;;;;;21.09;74.41;101829.63;5037419;28;20482;-61
2023/08/17 10:55:07;;;;;;;12.38;7.15;;;;;;;21.14;74.01;101829.56;5055597;28;20525;-61
2023/08/17 10:57:35;;;;;;;15.23;6.65;;;;;;;21.20;74.32;101829.47;5055435;28;20055;-60
2023/08/17 11:00:17;;;;;;;12.80;6.30;;;;;;;21.33;74.24;101835.53;5055691;28;20511;-60
2023/08/17 11:02:44;;;;;;;14.52;6.50;;;;;;;21.27;73.76;101831.09;5055005;28;20037;-60
2023/08/17 11:05:14;;;;;;;13.40;6.85;;;;;;;21.29;74.27;101829.28;5055559;28;20036;-60
2023/08/17 11:07:44;;;;;;;13.32;6.55;;;;;;;21.37;74.32;101830.09;5055382;28;20459;-60
2023/08/17 11:10:28;;;;;;;13.98;6.28;;;;;;;21.40;74.48;101837.19;5055356;28;20029;-61
2023/08/17 11:12:59;;;;;;;13.02;6.20;;;;;;;21.37;74.17;101837.22;5055473;28;20060;-61
2023/08/17 11:15:25;;;;;;;14.77;6.57;;;;;;;21.37;73.44;101842.59;5054976;28;20079;-61
2023/08/17 11:17:51;;;;;;;13.82;6.85;;;;;;;21.36;73.18;101847.09;5054762;28;20021;-61
2023/08/17 11:20:16;;;;;;;18.20;6.72;;;;;;;21.25;73.96;101836.53;5055143;28;20095;-60
2023/08/17 11:22:41;;;;;;;17.35;6.88;;;;;;;21.21;74.07;101842.88;5055056;28;20033;-61